sensor_id;sensor_type;location;lat;lon;timestamp;pressure;altitude;pressure_sealevel;temperature;humidity
61359;BME280;47228;46.762;23.598;2023-06-14T00:02:03;96987.33;;;14.58;92.97
61359;BME280;47228;46.762;23.598;2023-06-14T00:04:32;96987.52;;;14.57;93.13
61359;BME280;47228;46.762;23.598;2023-06-14T00:07:00;96986.91;;;14.56;92.95
61359;BME280;47228;46.762;23.598;2023-06-14T00:09:28;96987.42;;;14.52;92.36
61359;BME280;47228;46.762;23.598;2023-06-14T00:11:56;96990.52;;;14.46;92.21
61359;BME280;47228;46.762;23.598;2023-06-14T00:14:24;96988.46;;;14.42;92.50
61359;BME280;47228;46.762;23.598;2023-06-14T00:16:52;96990.81;;;14.39;92.86
61359;BME280;47228;46.762;23.598;2023-06-14T00:19:20;96989.69;;;14.36;92.63
61359;BME280;47228;46.762;23.598;2023-06-14T00:21:48;96992.25;;;14.33;92.74
61359;BME280;47228;46.762;23.598;2023-06-14T00:24:18;96992.09;;;14.31;93.08
61359;BME280;47228;46.762;23.598;2023-06-14T00:26:46;96990.42;;;14.30;93.35
61359;BME280;47228;46.762;23.598;2023-06-14T00:29:14;96992.27;;;14.28;93.17
61359;BME280;47228;46.762;23.598;2023-06-14T00:31:42;96992.13;;;14.27;93.21
61359;BME280;47228;46.762;23.598;2023-06-14T00:34:10;96994.15;;;14.27;93.35
61359;BME280;47228;46.762;23.598;2023-06-14T00:36:38;96995.17;;;14.24;93.16
61359;BME280;47228;46.762;23.598;2023-06-14T00:39:06;96998.30;;;14.23;93.28
61359;BME280;47228;46.762;23.598;2023-06-14T00:41:33;96992.06;;;14.21;93.32
61359;BME280;47228;46.762;23.598;2023-06-14T00:44:01;96991.77;;;14.20;93.10
61359;BME280;47228;46.762;23.598;2023-06-14T00:46:29;96988.26;;;14.18;93.40
61359;BME280;47228;46.762;23.598;2023-06-14T00:48:58;96986.89;;;14.19;93.39
61359;BME280;47228;46.762;23.598;2023-06-14T00:51:27;96989.63;;;14.20;93.60
61359;BME280;47228;46.762;23.598;2023-06-14T00:53:55;96983.77;;;14.20;93.34
61359;BME280;47228;46.762;23.598;2023-06-14T00:56:23;96984.10;;;14.19;93.16
61359;BME280;47228;46.762;23.598;2023-06-14T00:58:52;96984.88;;;14.17;93.05
61359;BME280;47228;46.762;23.598;2023-06-14T01:01:20;96983.18;;;14.15;92.91
61359;BME280;47228;46.762;23.598;2023-06-14T01:03:49;96980.84;;;14.16;92.91
61359;BME280;47228;46.762;23.598;2023-06-14T01:06:26;96981.09;;;14.15;93.05
61359;BME280;47228;46.762;23.598;2023-06-14T01:12:00;96978.67;;;14.17;93.15
61359;BME280;47228;46.762;23.598;2023-06-14T01:14:34;96981.16;;;14.16;92.95
61359;BME280;47228;46.762;23.598;2023-06-14T01:17:03;96980.11;;;14.11;92.80
61359;BME280;47228;46.762;23.598;2023-06-14T01:19:32;96981.63;;;14.04;92.44
61359;BME280;47228;46.762;23.598;2023-06-14T01:22:02;96978.84;;;13.96;92.56
61359;BME280;47228;46.762;23.598;2023-06-14T01:24:30;96981.53;;;13.87;92.60
61359;BME280;47228;46.762;23.598;2023-06-14T01:27:01;96983.48;;;13.80;92.43
61359;BME280;47228;46.762;23.598;2023-06-14T01:29:30;96982.59;;;13.74;92.68
61359;BME280;47228;46.762;23.598;2023-06-14T01:32:01;96981.50;;;13.71;92.77
61359;BME280;47228;46.762;23.598;2023-06-14T01:34:30;96981.77;;;13.66;92.52
61359;BME280;47228;46.762;23.598;2023-06-14T01:37:00;96984.23;;;13.62;92.48
61359;BME280;47228;46.762;23.598;2023-06-14T01:39:29;96985.14;;;13.60;92.72
61359;BME280;47228;46.762;23.598;2023-06-14T01:41:58;96984.54;;;13.56;92.59
61359;BME280;47228;46.762;23.598;2023-06-14T01:44:27;96985.90;;;13.53;92.43
61359;BME280;47228;46.762;23.598;2023-06-14T01:46:56;96986.92;;;13.51;92.00
61359;BME280;47228;46.762;23.598;2023-06-14T01:49:25;96987.73;;;13.48;91.32
61359;BME280;47228;46.762;23.598;2023-06-14T01:51:53;96986.70;;;13.48;90.91
61359;BME280;47228;46.762;23.598;2023-06-14T01:54:21;96990.08;;;13.48;91.15
61359;BME280;47228;46.762;23.598;2023-06-14T01:56:50;96995.60;;;13.46;90.53
61359;BME280;47228;46.762;23.598;2023-06-14T01:59:18;96995.11;;;13.46;91.01
61359;BME280;47228;46.762;23.598;2023-06-14T02:01:46;96994.56;;;13.47;91.12
61359;BME280;47228;46.762;23.598;2023-06-14T02:04:14;96999.23;;;13.48;90.98
61359;BME280;47228;46.762;23.598;2023-06-14T02:06:42;96998.90;;;13.49;90.89
61359;BME280;47228;46.762;23.598;2023-06-14T02:09:10;96995.09;;;13.49;90.94
61359;BME280;47228;46.762;23.598;2023-06-14T02:11:38;96996.22;;;13.47;90.49
61359;BME280;47228;46.762;23.598;2023-06-14T02:14:06;96996.10;;;13.45;90.70
61359;BME280;47228;46.762;23.598;2023-06-14T02:16:34;96995.87;;;13.45;90.45
61359;BME280;47228;46.762;23.598;2023-06-14T02:19:04;96993.44;;;13.43;90.79
61359;BME280;47228;46.762;23.598;2023-06-14T02:21:32;96995.69;;;13.43;90.80
61359;BME280;47228;46.762;23.598;2023-06-14T02:24:01;96993.69;;;13.42;90.60
61359;BME280;47228;46.762;23.598;2023-06-14T02:26:29;96998.39;;;13.41;90.15
61359;BME280;47228;46.762;23.598;2023-06-14T02:28:57;97000.11;;;13.41;90.89
61359;BME280;47228;46.762;23.598;2023-06-14T02:31:26;96997.89;;;13.42;90.54
61359;BME280;47228;46.762;23.598;2023-06-14T02:33:54;96998.22;;;13.40;89.83
61359;BME280;47228;46.762;23.598;2023-06-14T02:36:22;97000.92;;;13.39;89.60
61359;BME280;47228;46.762;23.598;2023-06-14T02:38:50;96999.45;;;13.36;89.57
61359;BME280;47228;46.762;23.598;2023-06-14T02:41:18;97002.83;;;13.32;89.52
61359;BME280;47228;46.762;23.598;2023-06-14T02:43:46;97002.59;;;13.29;89.51
61359;BME280;47228;46.762;23.598;2023-06-14T02:46:14;97003.19;;;13.25;89.28
61359;BME280;47228;46.762;23.598;2023-06-14T02:48:42;97004.71;;;13.20;88.94
61359;BME280;47228;46.762;23.598;2023-06-14T02:51:10;97003.86;;;13.13;88.66
61359;BME280;47228;46.762;23.598;2023-06-14T02:53:38;97003.38;;;13.08;88.98
61359;BME280;47228;46.762;23.598;2023-06-14T02:56:12;97009.14;;;13.06;89.13
61359;BME280;47228;46.762;23.598;2023-06-14T02:58:41;97016.85;;;13.06;89.31
61359;BME280;47228;46.762;23.598;2023-06-14T03:01:09;97012.45;;;13.04;88.98
61359;BME280;47228;46.762;23.598;2023-06-14T03:03:40;97013.02;;;13.04;89.29
61359;BME280;47228;46.762;23.598;2023-06-14T03:06:08;97015.34;;;13.05;89.36
61359;BME280;47228;46.762;23.598;2023-06-14T03:08:37;97019.02;;;13.04;88.91
61359;BME280;47228;46.762;23.598;2023-06-14T03:11:09;97015.86;;;13.04;88.91
61359;BME280;47228;46.762;23.598;2023-06-14T03:13:37;97016.06;;;13.04;88.74
61359;BME280;47228;46.762;23.598;2023-06-14T03:16:06;97012.95;;;13.03;88.75
61359;BME280;47228;46.762;23.598;2023-06-14T03:18:37;97010.55;;;13.05;89.08
61359;BME280;47228;46.762;23.598;2023-06-14T03:21:05;97005.10;;;13.07;88.93
61359;BME280;47228;46.762;23.598;2023-06-14T03:23:35;97007.88;;;13.09;89.02
61359;BME280;47228;46.762;23.598;2023-06-14T03:26:03;97009.10;;;13.09;88.60
61359;BME280;47228;46.762;23.598;2023-06-14T03:28:31;97009.80;;;13.09;88.52
61359;BME280;47228;46.762;23.598;2023-06-14T03:30:58;97008.30;;;13.07;87.91
61359;BME280;47228;46.762;23.598;2023-06-14T03:33:27;97013.96;;;13.05;87.67
61359;BME280;47228;46.762;23.598;2023-06-14T03:35:55;97008.35;;;13.02;87.33
61359;BME280;47228;46.762;23.598;2023-06-14T03:38:24;97006.65;;;12.99;87.43
61359;BME280;47228;46.762;23.598;2023-06-14T03:40:51;97009.84;;;12.98;87.39
61359;BME280;47228;46.762;23.598;2023-06-14T03:43:19;97012.60;;;12.97;87.70
61359;BME280;47228;46.762;23.598;2023-06-14T03:45:47;97012.54;;;12.97;87.97
61359;BME280;47228;46.762;23.598;2023-06-14T03:48:15;97013.77;;;12.95;87.39
61359;BME280;47228;46.762;23.598;2023-06-14T03:50:43;97014.64;;;12.92;87.51
61359;BME280;47228;46.762;23.598;2023-06-14T03:53:12;97014.19;;;12.89;87.27
61359;BME280;47228;46.762;23.598;2023-06-14T03:55:40;97015.96;;;12.85;87.03
61359;BME280;47228;46.762;23.598;2023-06-14T03:58:12;97017.62;;;12.83;87.09
61359;BME280;47228;46.762;23.598;2023-06-14T04:00:41;97015.94;;;12.83;86.97
61359;BME280;47228;46.762;23.598;2023-06-14T04:03:09;97014.39;;;12.83;87.10
61359;BME280;47228;46.762;23.598;2023-06-14T04:05:39;97015.86;;;12.83;87.34
61359;BME280;47228;46.762;23.598;2023-06-14T04:08:10;97019.73;;;12.85;87.38
61359;BME280;47228;46.762;23.598;2023-06-14T04:10:38;97023.64;;;12.86;86.73
61359;BME280;47228;46.762;23.598;2023-06-14T04:13:06;97024.67;;;12.86;86.63
61359;BME280;47228;46.762;23.598;2023-06-14T04:15:34;97026.33;;;12.85;86.33
61359;BME280;47228;46.762;23.598;2023-06-14T04:18:03;97024.02;;;12.84;86.30
61359;BME280;47228;46.762;23.598;2023-06-14T04:20:31;97029.56;;;12.83;85.95
61359;BME280;47228;46.762;23.598;2023-06-14T04:23:11;97033.98;;;12.83;86.04
61359;BME280;47228;46.762;23.598;2023-06-14T04:25:40;97033.90;;;12.83;85.84
61359;BME280;47228;46.762;23.598;2023-06-14T04:28:13;97038.23;;;12.78;85.20
61359;BME280;47228;46.762;23.598;2023-06-14T04:30:46;97037.39;;;12.77;85.64
61359;BME280;47228;46.762;23.598;2023-06-14T04:33:15;97040.29;;;12.76;85.57
61359;BME280;47228;46.762;23.598;2023-06-14T04:35:43;97038.48;;;12.74;85.23
61359;BME280;47228;46.762;23.598;2023-06-14T04:38:15;97039.33;;;12.72;84.94
61359;BME280;47228;46.762;23.598;2023-06-14T04:40:43;97039.99;;;12.71;85.04
61359;BME280;47228;46.762;23.598;2023-06-14T04:43:11;97043.75;;;12.72;85.04
61359;BME280;47228;46.762;23.598;2023-06-14T04:45:39;97046.15;;;12.74;85.32
61359;BME280;47228;46.762;23.598;2023-06-14T04:48:08;97045.61;;;12.76;85.89
61359;BME280;47228;46.762;23.598;2023-06-14T04:50:36;97047.13;;;12.81;85.87
61359;BME280;47228;46.762;23.598;2023-06-14T04:53:04;97048.09;;;12.85;85.84
61359;BME280;47228;46.762;23.598;2023-06-14T04:55:33;97048.90;;;12.89;85.57
61359;BME280;47228;46.762;23.598;2023-06-14T04:58:01;97049.48;;;12.92;85.37
61359;BME280;47228;46.762;23.598;2023-06-14T05:00:30;97052.22;;;12.98;85.93
61359;BME280;47228;46.762;23.598;2023-06-14T05:02:58;97058.84;;;13.03;85.95
61359;BME280;47228;46.762;23.598;2023-06-14T05:05:26;97060.04;;;13.06;85.46
61359;BME280;47228;46.762;23.598;2023-06-14T05:07:54;97063.79;;;13.08;85.36
61359;BME280;47228;46.762;23.598;2023-06-14T05:10:22;97067.92;;;13.14;86.18
61359;BME280;47228;46.762;23.598;2023-06-14T05:12:49;97069.55;;;13.21;86.22
61359;BME280;47228;46.762;23.598;2023-06-14T05:15:17;97071.00;;;13.26;85.95
61359;BME280;47228;46.762;23.598;2023-06-14T05:17:46;97069.02;;;13.29;86.03
61359;BME280;47228;46.762;23.598;2023-06-14T05:20:22;97067.42;;;13.34;86.00
61359;BME280;47228;46.762;23.598;2023-06-14T05:22:53;97073.56;;;13.39;86.30
61359;BME280;47228;46.762;23.598;2023-06-14T05:25:21;97069.98;;;13.42;86.73
61359;BME280;47228;46.762;23.598;2023-06-14T05:27:49;97068.94;;;13.47;86.90
61359;BME280;47228;46.762;23.598;2023-06-14T05:30:18;97074.37;;;13.53;87.10
61359;BME280;47228;46.762;23.598;2023-06-14T05:32:46;97078.75;;;13.59;87.10
61359;BME280;47228;46.762;23.598;2023-06-14T05:35:14;97084.11;;;13.65;86.78
61359;BME280;47228;46.762;23.598;2023-06-14T05:37:43;97086.48;;;13.71;86.99
61359;BME280;47228;46.762;23.598;2023-06-14T05:40:11;97090.33;;;13.77;87.58
61359;BME280;47228;46.762;23.598;2023-06-14T05:42:39;97092.98;;;13.86;87.45
61359;BME280;47228;46.762;23.598;2023-06-14T05:45:07;97093.52;;;13.95;87.77
61359;BME280;47228;46.762;23.598;2023-06-14T05:47:36;97091.48;;;14.06;87.55
61359;BME280;47228;46.762;23.598;2023-06-14T05:50:04;97091.73;;;14.13;86.79
61359;BME280;47228;46.762;23.598;2023-06-14T05:52:32;97092.79;;;14.18;86.42
61359;BME280;47228;46.762;23.598;2023-06-14T05:55:00;97094.79;;;14.24;86.27
61359;BME280;47228;46.762;23.598;2023-06-14T05:57:29;97097.97;;;14.30;86.29
61359;BME280;47228;46.762;23.598;2023-06-14T05:59:56;97100.56;;;14.37;86.03
61359;BME280;47228;46.762;23.598;2023-06-14T06:02:24;97099.90;;;14.43;85.79
61359;BME280;47228;46.762;23.598;2023-06-14T06:04:52;97098.69;;;14.49;85.40
61359;BME280;47228;46.762;23.598;2023-06-14T06:07:20;97098.58;;;14.56;85.20
61359;BME280;47228;46.762;23.598;2023-06-14T06:09:48;97100.50;;;14.64;85.22
61359;BME280;47228;46.762;23.598;2023-06-14T06:12:16;97100.77;;;14.73;85.08
61359;BME280;47228;46.762;23.598;2023-06-14T06:14:44;97100.02;;;14.79;84.70
61359;BME280;47228;46.762;23.598;2023-06-14T06:17:12;97097.51;;;14.82;83.87
61359;BME280;47228;46.762;23.598;2023-06-14T06:19:40;97095.52;;;14.87;84.19
61359;BME280;47228;46.762;23.598;2023-06-14T06:22:08;97098.58;;;14.92;84.02
61359;BME280;47228;46.762;23.598;2023-06-14T06:24:36;97098.70;;;14.99;83.98
61359;BME280;47228;46.762;23.598;2023-06-14T06:27:04;97097.39;;;15.07;83.54
61359;BME280;47228;46.762;23.598;2023-06-14T06:29:35;97095.30;;;15.15;83.07
61359;BME280;47228;46.762;23.598;2023-06-14T06:32:04;97093.87;;;15.22;82.59
61359;BME280;47228;46.762;23.598;2023-06-14T06:34:32;97097.27;;;15.26;82.15
61359;BME280;47228;46.762;23.598;2023-06-14T06:37:00;97096.41;;;15.30;81.97
61359;BME280;47228;46.762;23.598;2023-06-14T06:39:29;97096.48;;;15.37;82.93
61359;BME280;47228;46.762;23.598;2023-06-14T06:41:57;97097.02;;;15.47;83.31
61359;BME280;47228;46.762;23.598;2023-06-14T06:44:25;97094.36;;;15.53;82.13
61359;BME280;47228;46.762;23.598;2023-06-14T06:46:53;97095.03;;;15.58;81.17
61359;BME280;47228;46.762;23.598;2023-06-14T06:49:21;97098.14;;;15.66;81.32
61359;BME280;47228;46.762;23.598;2023-06-14T06:52:06;97098.38;;;15.77;81.18
61359;BME280;47228;46.762;23.598;2023-06-14T06:54:34;97099.34;;;15.87;79.71
61359;BME280;47228;46.762;23.598;2023-06-14T06:57:02;97099.31;;;15.94;79.51
61359;BME280;47228;46.762;23.598;2023-06-14T06:59:30;97099.95;;;16.04;79.45
61359;BME280;47228;46.762;23.598;2023-06-14T07:01:58;97106.02;;;16.11;79.32
61359;BME280;47228;46.762;23.598;2023-06-14T07:04:26;97104.27;;;16.18;78.60
61359;BME280;47228;46.762;23.598;2023-06-14T07:06:54;97106.16;;;16.22;77.90
61359;BME280;47228;46.762;23.598;2023-06-14T07:09:23;97104.33;;;16.25;77.75
61359;BME280;47228;46.762;23.598;2023-06-14T07:11:52;97099.71;;;16.32;78.39
61359;BME280;47228;46.762;23.598;2023-06-14T07:14:20;97102.02;;;16.41;78.60
61359;BME280;47228;46.762;23.598;2023-06-14T07:16:50;97104.59;;;16.49;77.95
61359;BME280;47228;46.762;23.598;2023-06-14T07:19:19;97107.58;;;16.52;76.73
61359;BME280;47228;46.762;23.598;2023-06-14T07:21:46;97110.58;;;16.52;76.16
61359;BME280;47228;46.762;23.598;2023-06-14T07:24:15;97108.73;;;16.53;76.03
61359;BME280;47228;46.762;23.598;2023-06-14T07:26:43;97110.15;;;16.52;75.51
61359;BME280;47228;46.762;23.598;2023-06-14T07:29:11;97108.29;;;16.53;75.73
61359;BME280;47228;46.762;23.598;2023-06-14T07:31:38;97107.36;;;16.52;75.42
61359;BME280;47228;46.762;23.598;2023-06-14T07:34:07;97108.96;;;16.51;74.98
61359;BME280;47228;46.762;23.598;2023-06-14T07:36:35;97106.61;;;16.52;74.87
61359;BME280;47228;46.762;23.598;2023-06-14T07:39:05;97107.16;;;16.61;74.96
61359;BME280;47228;46.762;23.598;2023-06-14T07:41:34;97107.10;;;16.73;75.09
61359;BME280;47228;46.762;23.598;2023-06-14T07:44:02;97108.66;;;16.88;74.83
61359;BME280;47228;46.762;23.598;2023-06-14T07:46:30;97106.23;;;17.00;73.55
61359;BME280;47228;46.762;23.598;2023-06-14T07:48:59;97104.24;;;17.08;72.92
61359;BME280;47228;46.762;23.598;2023-06-14T07:51:28;97106.25;;;17.19;72.87
61359;BME280;47228;46.762;23.598;2023-06-14T07:53:56;97101.52;;;17.28;73.98
61359;BME280;47228;46.762;23.598;2023-06-14T07:56:24;97104.35;;;17.41;73.46
61359;BME280;47228;46.762;23.598;2023-06-14T07:58:52;97102.17;;;17.53;72.81
61359;BME280;47228;46.762;23.598;2023-06-14T08:01:20;97099.87;;;17.67;72.42
61359;BME280;47228;46.762;23.598;2023-06-14T08:03:48;97101.83;;;17.84;72.53
61359;BME280;47228;46.762;23.598;2023-06-14T08:06:16;97106.06;;;17.97;71.33
61359;BME280;47228;46.762;23.598;2023-06-14T08:08:44;97103.57;;;18.12;72.06
61359;BME280;47228;46.762;23.598;2023-06-14T08:11:12;97108.98;;;18.26;70.78
61359;BME280;47228;46.762;23.598;2023-06-14T08:13:40;97106.16;;;18.32;69.35
61359;BME280;47228;46.762;23.598;2023-06-14T08:16:09;97105.52;;;18.33;68.46
61359;BME280;47228;46.762;23.598;2023-06-14T08:18:37;97104.31;;;18.30;67.67
61359;BME280;47228;46.762;23.598;2023-06-14T08:21:05;97106.84;;;18.27;67.01
61359;BME280;47228;46.762;23.598;2023-06-14T08:23:33;97110.27;;;18.27;67.72
61359;BME280;47228;46.762;23.598;2023-06-14T08:26:01;97106.02;;;18.34;68.83
61359;BME280;47228;46.762;23.598;2023-06-14T08:28:31;97104.80;;;18.49;68.75
61359;BME280;47228;46.762;23.598;2023-06-14T08:30:59;97104.18;;;18.66;69.93
61359;BME280;47228;46.762;23.598;2023-06-14T08:33:28;97101.90;;;18.90;70.22
61359;BME280;47228;46.762;23.598;2023-06-14T08:35:56;97104.86;;;19.11;68.77
61359;BME280;47228;46.762;23.598;2023-06-14T08:38:24;97104.02;;;19.26;66.87
61359;BME280;47228;46.762;23.598;2023-06-14T08:40:57;97106.31;;;19.39;66.86
61359;BME280;47228;46.762;23.598;2023-06-14T08:43:25;97102.84;;;19.53;67.16
61359;BME280;47228;46.762;23.598;2023-06-14T08:45:58;97100.36;;;19.61;66.71
61359;BME280;47228;46.762;23.598;2023-06-14T08:48:28;97099.60;;;19.60;65.68
61359;BME280;47228;46.762;23.598;2023-06-14T08:50:56;97103.05;;;19.59;65.67
61359;BME280;47228;46.762;23.598;2023-06-14T08:53:34;97102.94;;;19.58;66.57
61359;BME280;47228;46.762;23.598;2023-06-14T08:56:06;97099.61;;;19.52;66.07
61359;BME280;47228;46.762;23.598;2023-06-14T08:58:36;97106.17;;;19.45;65.57
61359;BME280;47228;46.762;23.598;2023-06-14T09:01:06;97115.10;;;19.39;65.77
61359;BME280;47228;46.762;23.598;2023-06-14T09:03:35;97116.59;;;19.30;65.53
61359;BME280;47228;46.762;23.598;2023-06-14T09:06:03;97117.59;;;19.23;65.80
61359;BME280;47228;46.762;23.598;2023-06-14T09:08:32;97117.42;;;19.22;65.75
61359;BME280;47228;46.762;23.598;2023-06-14T09:11:01;97112.27;;;19.28;65.21
61359;BME280;47228;46.762;23.598;2023-06-14T09:13:29;97115.52;;;19.41;65.24
61359;BME280;47228;46.762;23.598;2023-06-14T09:15:59;97115.33;;;19.52;65.69
61359;BME280;47228;46.762;23.598;2023-06-14T09:18:39;97116.35;;;19.49;63.59
61359;BME280;47228;46.762;23.598;2023-06-14T09:21:08;97113.64;;;19.41;64.39
61359;BME280;47228;46.762;23.598;2023-06-14T09:26:12;97110.60;;;19.26;64.92
61359;BME280;47228;46.762;23.598;2023-06-14T09:28:48;97110.63;;;19.19;65.45
61359;BME280;47228;46.762;23.598;2023-06-14T09:31:18;97110.20;;;19.14;65.79
61359;BME280;47228;46.762;23.598;2023-06-14T09:33:48;97109.80;;;19.13;66.71
61359;BME280;47228;46.762;23.598;2023-06-14T09:36:20;97111.44;;;19.15;67.32
61359;BME280;47228;46.762;23.598;2023-06-14T09:38:56;97112.20;;;19.18;67.29
61359;BME280;47228;46.762;23.598;2023-06-14T09:44:03;97115.33;;;19.20;64.74
61359;BME280;47228;46.762;23.598;2023-06-14T09:46:36;97113.64;;;19.31;64.82
61359;BME280;47228;46.762;23.598;2023-06-14T09:49:05;97106.48;;;19.48;64.52
61359;BME280;47228;46.762;23.598;2023-06-14T09:51:35;97102.89;;;19.67;65.69
61359;BME280;47228;46.762;23.598;2023-06-14T09:54:05;97106.02;;;19.83;64.46
61359;BME280;47228;46.762;23.598;2023-06-14T09:56:45;97107.05;;;20.08;64.69
61359;BME280;47228;46.762;23.598;2023-06-14T09:59:16;97105.44;;;20.39;64.00
61359;BME280;47228;46.762;23.598;2023-06-14T10:01:47;97102.95;;;20.63;64.35
61359;BME280;47228;46.762;23.598;2023-06-14T10:04:19;97104.66;;;20.83;63.73
61359;BME280;47228;46.762;23.598;2023-06-14T10:06:50;97101.73;;;20.91;62.38
61359;BME280;47228;46.762;23.598;2023-06-14T10:09:21;97100.63;;;20.95;61.71
61359;BME280;47228;46.762;23.598;2023-06-14T10:11:50;97101.58;;;21.01;60.80
61359;BME280;47228;46.762;23.598;2023-06-14T10:14:18;97105.27;;;21.07;59.96
61359;BME280;47228;46.762;23.598;2023-06-14T10:17:03;97100.79;;;21.07;60.11
61359;BME280;47228;46.762;23.598;2023-06-14T10:19:42;97102.58;;;21.07;60.89
61359;BME280;47228;46.762;23.598;2023-06-14T10:22:23;97102.54;;;21.12;60.11
61359;BME280;47228;46.762;23.598;2023-06-14T10:24:53;97100.98;;;21.20;59.66
61359;BME280;47228;46.762;23.598;2023-06-14T10:27:22;97098.02;;;21.32;58.58
61359;BME280;47228;46.762;23.598;2023-06-14T10:32:27;97095.66;;;21.37;56.87
61359;BME280;47228;46.762;23.598;2023-06-14T10:34:59;97092.21;;;21.34;56.86
61359;BME280;47228;46.762;23.598;2023-06-14T10:37:28;97090.98;;;21.30;57.86
61359;BME280;47228;46.762;23.598;2023-06-14T10:39:56;97092.79;;;21.28;57.92
61359;BME280;47228;46.762;23.598;2023-06-14T10:42:29;97094.86;;;21.35;57.62
61359;BME280;47228;46.762;23.598;2023-06-14T10:45:00;97097.92;;;21.44;58.04
61359;BME280;47228;46.762;23.598;2023-06-14T10:47:35;97101.04;;;21.47;57.75
61359;BME280;47228;46.762;23.598;2023-06-14T10:50:07;97102.80;;;21.50;57.51
61359;BME280;47228;46.762;23.598;2023-06-14T10:52:40;97105.32;;;21.53;58.07
61359;BME280;47228;46.762;23.598;2023-06-14T10:55:14;97108.37;;;21.51;56.78
61359;BME280;47228;46.762;23.598;2023-06-14T10:57:46;97111.45;;;21.42;56.00
61359;BME280;47228;46.762;23.598;2023-06-14T11:00:21;97110.80;;;21.34;56.28
61359;BME280;47228;46.762;23.598;2023-06-14T11:10:59;97100.96;;;21.49;55.24
61359;BME280;47228;46.762;23.598;2023-06-14T11:13:28;97099.73;;;21.39;55.35
61359;BME280;47228;46.762;23.598;2023-06-14T11:15:59;97103.06;;;21.26;54.97
61359;BME280;47228;46.762;23.598;2023-06-14T11:18:28;97098.39;;;21.20;56.21
61359;BME280;47228;46.762;23.598;2023-06-14T11:20:56;97096.41;;;21.25;57.29
61359;BME280;47228;46.762;23.598;2023-06-14T11:23:24;97094.53;;;21.34;56.77
61359;BME280;47228;46.762;23.598;2023-06-14T11:25:52;97090.55;;;21.40;55.57
61359;BME280;47228;46.762;23.598;2023-06-14T11:28:20;97090.48;;;21.34;55.45
61359;BME280;47228;46.762;23.598;2023-06-14T11:30:59;97090.33;;;21.32;56.68
61359;BME280;47228;46.762;23.598;2023-06-14T11:33:28;97088.61;;;21.33;57.06
61359;BME280;47228;46.762;23.598;2023-06-14T11:35:56;97086.89;;;21.30;55.87
61359;BME280;47228;46.762;23.598;2023-06-14T11:38:25;97080.43;;;21.26;55.74
61359;BME280;47228;46.762;23.598;2023-06-14T11:40:58;97082.88;;;21.24;56.94
61359;BME280;47228;46.762;23.598;2023-06-14T11:43:26;97083.89;;;21.26;56.45
61359;BME280;47228;46.762;23.598;2023-06-14T11:45:54;97084.01;;;21.23;55.95
61359;BME280;47228;46.762;23.598;2023-06-14T11:48:40;97082.37;;;21.19;55.82
61359;BME280;47228;46.762;23.598;2023-06-14T11:51:08;97079.10;;;21.14;55.48
61359;BME280;47228;46.762;23.598;2023-06-14T11:53:37;97075.23;;;21.11;55.41
61359;BME280;47228;46.762;23.598;2023-06-14T11:56:05;97069.66;;;21.02;54.24
61359;BME280;47228;46.762;23.598;2023-06-14T11:58:33;97067.61;;;20.90;54.28
61359;BME280;47228;46.762;23.598;2023-06-14T12:01:03;97070.57;;;20.86;55.53
61359;BME280;47228;46.762;23.598;2023-06-14T12:03:31;97066.52;;;20.87;57.46
61359;BME280;47228;46.762;23.598;2023-06-14T12:06:07;97068.59;;;20.89;57.89
61359;BME280;47228;46.762;23.598;2023-06-14T12:08:37;97073.38;;;20.92;57.91
61359;BME280;47228;46.762;23.598;2023-06-14T12:11:13;97069.98;;;20.94;58.13
61359;BME280;47228;46.762;23.598;2023-06-14T12:13:42;97072.50;;;20.96;58.10
61359;BME280;47228;46.762;23.598;2023-06-14T12:16:11;97071.27;;;20.96;56.42
61359;BME280;47228;46.762;23.598;2023-06-14T12:18:40;97073.46;;;20.98;55.48
61359;BME280;47228;46.762;23.598;2023-06-14T12:21:09;97066.83;;;21.08;55.69
61359;BME280;47228;46.762;23.598;2023-06-14T12:23:48;97069.76;;;21.22;55.97
61359;BME280;47228;46.762;23.598;2023-06-14T12:26:18;97066.48;;;21.38;55.30
61359;BME280;47228;46.762;23.598;2023-06-14T12:28:47;97066.27;;;21.51;55.66
61359;BME280;47228;46.762;23.598;2023-06-14T12:31:16;97067.96;;;21.62;55.27
61359;BME280;47228;46.762;23.598;2023-06-14T12:33:44;97065.69;;;21.70;55.58
61359;BME280;47228;46.762;23.598;2023-06-14T12:36:16;97062.59;;;21.71;54.34
61359;BME280;47228;46.762;23.598;2023-06-14T12:38:45;97058.06;;;21.64;53.04
61359;BME280;47228;46.762;23.598;2023-06-14T12:41:14;97060.99;;;21.55;53.43
61359;BME280;47228;46.762;23.598;2023-06-14T12:43:42;97058.17;;;21.50;54.66
61359;BME280;47228;46.762;23.598;2023-06-14T12:46:10;97052.45;;;21.48;55.47
61359;BME280;47228;46.762;23.598;2023-06-14T12:48:39;97049.70;;;21.49;55.76
61359;BME280;47228;46.762;23.598;2023-06-14T12:51:07;97048.65;;;21.51;55.76
61359;BME280;47228;46.762;23.598;2023-06-14T12:53:35;97050.29;;;21.55;56.18
61359;BME280;47228;46.762;23.598;2023-06-14T12:56:04;97048.05;;;21.60;56.21
61359;BME280;47228;46.762;23.598;2023-06-14T12:58:32;97045.44;;;21.62;55.52
61359;BME280;47228;46.762;23.598;2023-06-14T13:01:00;97041.81;;;21.62;54.45
61359;BME280;47228;46.762;23.598;2023-06-14T13:03:28;97043.46;;;21.64;54.59
61359;BME280;47228;46.762;23.598;2023-06-14T13:05:56;97046.45;;;21.73;55.20
61359;BME280;47228;46.762;23.598;2023-06-14T13:08:24;97044.44;;;21.81;54.76
61359;BME280;47228;46.762;23.598;2023-06-14T13:10:52;97043.83;;;21.83;54.63
61359;BME280;47228;46.762;23.598;2023-06-14T13:13:21;97045.65;;;21.83;53.99
61359;BME280;47228;46.762;23.598;2023-06-14T13:15:49;97040.08;;;21.79;52.53
61359;BME280;47228;46.762;23.598;2023-06-14T13:18:18;97040.70;;;21.73;53.18
61359;BME280;47228;46.762;23.598;2023-06-14T13:20:47;97041.23;;;21.68;53.43